sensor_id;sensor_type;location;lat;lon;timestamp;P1;durP1;ratioP1;P2;durP2;ratioP2
27728;SDS011;15126;42.186;24.340;2024-03-25T00:00:16;10.82;;;7.07;;
27728;SDS011;15126;42.186;24.340;2024-03-25T00:02:41;17.40;;;6.95;;
27728;SDS011;15126;42.186;24.340;2024-03-25T00:05:07;10.05;;;6.07;;
27728;SDS011;15126;42.186;24.340;2024-03-25T00:07:37;12.25;;;7.03;;
27728;SDS011;15126;42.186;24.340;2024-03-25T00:10:03;12.32;;;7.22;;
27728;SDS011;15126;42.186;24.340;2024-03-25T00:12:31;9.45;;;6.22;;
27728;SDS011;15126;42.186;24.340;2024-03-25T00:14:57;12.77;;;6.53;;
27728;SDS011;15126;42.186;24.340;2024-03-25T00:17:22;11.38;;;6.00;;
27728;SDS011;15126;42.186;24.340;2024-03-25T00:19:48;12.25;;;6.57;;
27728;SDS011;15126;42.186;24.340;2024-03-25T00:22:19;9.27;;;6.20;;
27728;SDS011;15126;42.186;24.340;2024-03-25T00:24:46;9.65;;;6.45;;
27728;SDS011;15126;42.186;24.340;2024-03-25T00:27:12;9.68;;;6.30;;
27728;SDS011;15126;42.186;24.340;2024-03-25T00:29:38;10.80;;;6.22;;
27728;SDS011;15126;42.186;24.340;2024-03-25T00:32:04;10.13;;;6.05;;
27728;SDS011;15126;42.186;24.340;2024-03-25T00:34:30;8.85;;;5.82;;
27728;SDS011;15126;42.186;24.340;2024-03-25T00:36:57;11.73;;;6.22;;
27728;SDS011;15126;42.186;24.340;2024-03-25T00:39:22;12.35;;;6.07;;
27728;SDS011;15126;42.186;24.340;2024-03-25T00:41:48;9.63;;;5.93;;
27728;SDS011;15126;42.186;24.340;2024-03-25T00:44:13;9.55;;;5.68;;
27728;SDS011;15126;42.186;24.340;2024-03-25T00:46:39;11.55;;;5.88;;
27728;SDS011;15126;42.186;24.340;2024-03-25T00:49:06;14.63;;;4.22;;
27728;SDS011;15126;42.186;24.340;2024-03-25T00:51:32;12.02;;;3.33;;
27728;SDS011;15126;42.186;24.340;2024-03-25T00:53:58;20.10;;;4.40;;
27728;SDS011;15126;42.186;24.340;2024-03-25T00:56:23;15.52;;;2.58;;
27728;SDS011;15126;42.186;24.340;2024-03-25T00:58:49;15.52;;;2.25;;
27728;SDS011;15126;42.186;24.340;2024-03-25T01:03:39;3.33;;;0.80;;
27728;SDS011;15126;42.186;24.340;2024-03-25T01:06:05;2.63;;;0.43;;
27728;SDS011;15126;42.186;24.340;2024-03-25T01:08:30;1.05;;;0.22;;
27728;SDS011;15126;42.186;24.340;2024-03-25T01:13:21;2.13;;;0.15;;
27728;SDS011;15126;42.186;24.340;2024-03-25T01:15:50;0.47;;;0.20;;
27728;SDS011;15126;42.186;24.340;2024-03-25T01:20:41;4.57;;;0.13;;
27728;SDS011;15126;42.186;24.340;2024-03-25T01:23:06;1.27;;;0.20;;
27728;SDS011;15126;42.186;24.340;2024-03-25T01:25:31;0.15;;;0.10;;
27728;SDS011;15126;42.186;24.340;2024-03-25T01:27:57;0.85;;;0.20;;
27728;SDS011;15126;42.186;24.340;2024-03-25T01:30:22;0.20;;;0.13;;
27728;SDS011;15126;42.186;24.340;2024-03-25T01:32:48;3.10;;;0.20;;
27728;SDS011;15126;42.186;24.340;2024-03-25T01:35:14;0.20;;;0.10;;
27728;SDS011;15126;42.186;24.340;2024-03-25T01:37:40;0.10;;;0.10;;
27728;SDS011;15126;42.186;24.340;2024-03-25T01:40:07;0.25;;;0.25;;
27728;SDS011;15126;42.186;24.340;2024-03-25T01:42:35;0.13;;;0.08;;
27728;SDS011;15126;42.186;24.340;2024-03-25T01:45:00;0.00;;;0.00;;
27728;SDS011;15126;42.186;24.340;2024-03-25T01:47:28;0.20;;;0.20;;
27728;SDS011;15126;42.186;24.340;2024-03-25T01:49:54;0.10;;;0.10;;
27728;SDS011;15126;42.186;24.340;2024-03-25T01:52:21;0.10;;;0.10;;
27728;SDS011;15126;42.186;24.340;2024-03-25T01:54:48;1.15;;;0.10;;
27728;SDS011;15126;42.186;24.340;2024-03-25T01:57:14;0.03;;;0.03;;
27728;SDS011;15126;42.186;24.340;2024-03-25T01:59:41;0.00;;;0.00;;
27728;SDS011;15126;42.186;24.340;2024-03-25T02:02:07;0.00;;;0.00;;
27728;SDS011;15126;42.186;24.340;2024-03-25T02:04:33;0.00;;;0.00;;
27728;SDS011;15126;42.186;24.340;2024-03-25T02:06:59;0.10;;;0.00;;
27728;SDS011;15126;42.186;24.340;2024-03-25T02:09:26;0.10;;;0.00;;
27728;SDS011;15126;42.186;24.340;2024-03-25T02:16:44;0.20;;;0.00;;
27728;SDS011;15126;42.186;24.340;2024-03-25T02:19:09;0.10;;;0.10;;
27728;SDS011;15126;42.186;24.340;2024-03-25T02:21:39;0.00;;;0.00;;
27728;SDS011;15126;42.186;24.340;2024-03-25T02:24:05;0.82;;;0.13;;
27728;SDS011;15126;42.186;24.340;2024-03-25T02:26:34;0.30;;;0.20;;
27728;SDS011;15126;42.186;24.340;2024-03-25T02:29:00;0.00;;;0.00;;
27728;SDS011;15126;42.186;24.340;2024-03-25T02:31:26;1.25;;;0.13;;
27728;SDS011;15126;42.186;24.340;2024-03-25T02:33:51;0.40;;;0.20;;
27728;SDS011;15126;42.186;24.340;2024-03-25T02:36:17;0.32;;;0.10;;
27728;SDS011;15126;42.186;24.340;2024-03-25T02:41:08;0.03;;;0.03;;
27728;SDS011;15126;42.186;24.340;2024-03-25T02:43:33;0.20;;;0.10;;
27728;SDS011;15126;42.186;24.340;2024-03-25T02:45:59;0.00;;;0.00;;
27728;SDS011;15126;42.186;24.340;2024-03-25T02:48:24;0.20;;;0.20;;
27728;SDS011;15126;42.186;24.340;2024-03-25T02:50:50;0.20;;;0.03;;
27728;SDS011;15126;42.186;24.340;2024-03-25T02:55:41;0.25;;;0.10;;
27728;SDS011;15126;42.186;24.340;2024-03-25T02:58:06;0.10;;;0.10;;
27728;SDS011;15126;42.186;24.340;2024-03-25T03:02:57;2.05;;;0.30;;
27728;SDS011;15126;42.186;24.340;2024-03-25T03:07:48;0.20;;;0.08;;
27728;SDS011;15126;42.186;24.340;2024-03-25T03:10:13;0.35;;;0.20;;
27728;SDS011;15126;42.186;24.340;2024-03-25T03:12:39;0.13;;;0.10;;
27728;SDS011;15126;42.186;24.340;2024-03-25T03:15:04;0.13;;;0.10;;
27728;SDS011;15126;42.186;24.340;2024-03-25T03:19:55;0.10;;;0.10;;
27728;SDS011;15126;42.186;24.340;2024-03-25T03:24:46;0.32;;;0.08;;
27728;SDS011;15126;42.186;24.340;2024-03-25T03:27:12;0.35;;;0.05;;
27728;SDS011;15126;42.186;24.340;2024-03-25T03:32:04;0.20;;;0.10;;
27728;SDS011;15126;42.186;24.340;2024-03-25T03:36:54;0.08;;;0.08;;
27728;SDS011;15126;42.186;24.340;2024-03-25T03:39:20;0.13;;;0.13;;
27728;SDS011;15126;42.186;24.340;2024-03-25T03:41:45;0.20;;;0.20;;
27728;SDS011;15126;42.186;24.340;2024-03-25T03:44:11;0.25;;;0.10;;
27728;SDS011;15126;42.186;24.340;2024-03-25T03:46:39;0.17;;;0.17;;
27728;SDS011;15126;42.186;24.340;2024-03-25T03:49:05;0.45;;;0.10;;
27728;SDS011;15126;42.186;24.340;2024-03-25T03:51:30;0.10;;;0.05;;
27728;SDS011;15126;42.186;24.340;2024-03-25T03:53:56;0.75;;;0.30;;
27728;SDS011;15126;42.186;24.340;2024-03-25T03:56:22;0.93;;;0.43;;
27728;SDS011;15126;42.186;24.340;2024-03-25T03:58:47;1.40;;;0.50;;
27728;SDS011;15126;42.186;24.340;2024-03-25T04:01:16;0.30;;;0.20;;
27728;SDS011;15126;42.186;24.340;2024-03-25T04:03:43;0.30;;;0.17;;
27728;SDS011;15126;42.186;24.340;2024-03-25T04:06:09;1.75;;;0.70;;
27728;SDS011;15126;42.186;24.340;2024-03-25T04:08:36;0.63;;;0.40;;
27728;SDS011;15126;42.186;24.340;2024-03-25T04:11:02;0.10;;;0.10;;
27728;SDS011;15126;42.186;24.340;2024-03-25T04:13:30;0.22;;;0.22;;
27728;SDS011;15126;42.186;24.340;2024-03-25T04:15:59;0.40;;;0.30;;
27728;SDS011;15126;42.186;24.340;2024-03-25T04:18:27;0.35;;;0.10;;
27728;SDS011;15126;42.186;24.340;2024-03-25T04:20:53;0.10;;;0.10;;
27728;SDS011;15126;42.186;24.340;2024-03-25T04:23:18;2.17;;;0.88;;
27728;SDS011;15126;42.186;24.340;2024-03-25T04:25:44;3.80;;;1.17;;
27728;SDS011;15126;42.186;24.340;2024-03-25T04:28:09;1.88;;;0.70;;
27728;SDS011;15126;42.186;24.340;2024-03-25T04:30:35;0.73;;;0.32;;
27728;SDS011;15126;42.186;24.340;2024-03-25T04:33:01;1.45;;;0.80;;
27728;SDS011;15126;42.186;24.340;2024-03-25T04:35:27;4.78;;;1.90;;
27728;SDS011;15126;42.186;24.340;2024-03-25T04:37:53;3.92;;;1.75;;
27728;SDS011;15126;42.186;24.340;2024-03-25T04:40:20;5.50;;;1.15;;
27728;SDS011;15126;42.186;24.340;2024-03-25T04:42:46;2.05;;;1.08;;
27728;SDS011;15126;42.186;24.340;2024-03-25T04:45:11;0.75;;;0.30;;
27728;SDS011;15126;42.186;24.340;2024-03-25T04:47:37;1.02;;;0.50;;
27728;SDS011;15126;42.186;24.340;2024-03-25T04:50:03;0.85;;;0.45;;
27728;SDS011;15126;42.186;24.340;2024-03-25T04:54:54;1.48;;;0.68;;
27728;SDS011;15126;42.186;24.340;2024-03-25T04:57:19;1.45;;;0.98;;
27728;SDS011;15126;42.186;24.340;2024-03-25T04:59:45;1.40;;;0.70;;
27728;SDS011;15126;42.186;24.340;2024-03-25T05:02:10;0.95;;;0.55;;
27728;SDS011;15126;42.186;24.340;2024-03-25T05:04:36;0.98;;;0.50;;
27728;SDS011;15126;42.186;24.340;2024-03-25T05:07:02;0.95;;;0.52;;
27728;SDS011;15126;42.186;24.340;2024-03-25T05:09:27;1.98;;;0.55;;
27728;SDS011;15126;42.186;24.340;2024-03-25T05:11:56;1.38;;;0.70;;
27728;SDS011;15126;42.186;24.340;2024-03-25T05:14:22;1.42;;;0.93;;
27728;SDS011;15126;42.186;24.340;2024-03-25T05:16:47;1.05;;;0.40;;
27728;SDS011;15126;42.186;24.340;2024-03-25T05:19:14;0.88;;;0.70;;
27728;SDS011;15126;42.186;24.340;2024-03-25T05:21:39;1.55;;;0.82;;
27728;SDS011;15126;42.186;24.340;2024-03-25T05:26:31;1.73;;;1.15;;
27728;SDS011;15126;42.186;24.340;2024-03-25T05:28:56;4.38;;;1.30;;
27728;SDS011;15126;42.186;24.340;2024-03-25T05:31:24;1.20;;;0.80;;
27728;SDS011;15126;42.186;24.340;2024-03-25T05:33:50;2.65;;;1.02;;
27728;SDS011;15126;42.186;24.340;2024-03-25T05:36:16;3.03;;;1.20;;
27728;SDS011;15126;42.186;24.340;2024-03-25T05:38:41;2.30;;;0.98;;
27728;SDS011;15126;42.186;24.340;2024-03-25T05:41:08;1.73;;;0.90;;
27728;SDS011;15126;42.186;24.340;2024-03-25T05:43:34;2.63;;;1.35;;
27728;SDS011;15126;42.186;24.340;2024-03-25T05:46:00;3.63;;;1.20;;
27728;SDS011;15126;42.186;24.340;2024-03-25T05:48:25;3.53;;;1.35;;
27728;SDS011;15126;42.186;24.340;2024-03-25T05:51:04;4.53;;;2.30;;
27728;SDS011;15126;42.186;24.340;2024-03-25T05:53:30;2.05;;;1.27;;
27728;SDS011;15126;42.186;24.340;2024-03-25T05:55:56;3.67;;;1.83;;
27728;SDS011;15126;42.186;24.340;2024-03-25T05:58:24;3.13;;;1.42;;
27728;SDS011;15126;42.186;24.340;2024-03-25T06:03:15;3.22;;;1.67;;
27728;SDS011;15126;42.186;24.340;2024-03-25T06:05:42;2.15;;;1.55;;
27728;SDS011;15126;42.186;24.340;2024-03-25T06:08:07;4.50;;;1.50;;
27728;SDS011;15126;42.186;24.340;2024-03-25T06:10:41;3.60;;;1.73;;
27728;SDS011;15126;42.186;24.340;2024-03-25T06:15:32;3.75;;;1.98;;
27728;SDS011;15126;42.186;24.340;2024-03-25T06:17:57;3.45;;;1.95;;
27728;SDS011;15126;42.186;24.340;2024-03-25T06:22:48;3.80;;;1.98;;
27728;SDS011;15126;42.186;24.340;2024-03-25T06:25:15;4.13;;;1.95;;
27728;SDS011;15126;42.186;24.340;2024-03-25T06:30:06;3.88;;;1.77;;
27728;SDS011;15126;42.186;24.340;2024-03-25T06:32:50;3.95;;;1.92;;
27728;SDS011;15126;42.186;24.340;2024-03-25T06:35:34;4.47;;;2.28;;
27728;SDS011;15126;42.186;24.340;2024-03-25T06:40:25;3.17;;;2.00;;
27728;SDS011;15126;42.186;24.340;2024-03-25T06:45:16;4.65;;;2.28;;
27728;SDS011;15126;42.186;24.340;2024-03-25T06:47:42;5.65;;;2.40;;
27728;SDS011;15126;42.186;24.340;2024-03-25T06:52:33;7.15;;;3.00;;
27728;SDS011;15126;42.186;24.340;2024-03-25T06:57:24;10.45;;;3.25;;
27728;SDS011;15126;42.186;24.340;2024-03-25T06:59:49;5.70;;;2.58;;
27728;SDS011;15126;42.186;24.340;2024-03-25T07:02:15;5.13;;;2.78;;
27728;SDS011;15126;42.186;24.340;2024-03-25T07:07:05;5.03;;;2.10;;
27728;SDS011;15126;42.186;24.340;2024-03-25T07:11:56;5.18;;;2.28;;
27728;SDS011;15126;42.186;24.340;2024-03-25T07:16:47;4.78;;;1.88;;
27728;SDS011;15126;42.186;24.340;2024-03-25T07:19:13;3.20;;;1.83;;
27728;SDS011;15126;42.186;24.340;2024-03-25T07:21:38;5.18;;;2.33;;
27728;SDS011;15126;42.186;24.340;2024-03-25T07:24:04;5.78;;;2.25;;
27728;SDS011;15126;42.186;24.340;2024-03-25T07:28:55;3.83;;;2.05;;
27728;SDS011;15126;42.186;24.340;2024-03-25T07:33:46;3.63;;;1.83;;
27728;SDS011;15126;42.186;24.340;2024-03-25T07:38:36;5.18;;;2.30;;
27728;SDS011;15126;42.186;24.340;2024-03-25T07:41:03;9.02;;;2.47;;
27728;SDS011;15126;42.186;24.340;2024-03-25T07:43:29;6.75;;;2.42;;
27728;SDS011;15126;42.186;24.340;2024-03-25T07:48:23;3.20;;;1.80;;
27728;SDS011;15126;42.186;24.340;2024-03-25T07:51:00;4.38;;;1.73;;
27728;SDS011;15126;42.186;24.340;2024-03-25T07:55:51;3.60;;;1.80;;
27728;SDS011;15126;42.186;24.340;2024-03-25T07:58:16;4.05;;;1.52;;
27728;SDS011;15126;42.186;24.340;2024-03-25T08:00:44;2.38;;;1.65;;
27728;SDS011;15126;42.186;24.340;2024-03-25T08:03:10;7.78;;;2.35;;
27728;SDS011;15126;42.186;24.340;2024-03-25T08:05:35;3.25;;;1.58;;
27728;SDS011;15126;42.186;24.340;2024-03-25T08:08:01;3.72;;;1.70;;
27728;SDS011;15126;42.186;24.340;2024-03-25T08:12:51;7.43;;;2.38;;
27728;SDS011;15126;42.186;24.340;2024-03-25T08:17:42;4.25;;;1.80;;
27728;SDS011;15126;42.186;24.340;2024-03-25T08:22:33;4.45;;;1.60;;
27728;SDS011;15126;42.186;24.340;2024-03-25T08:27:24;4.63;;;1.60;;
27728;SDS011;15126;42.186;24.340;2024-03-25T08:32:18;4.97;;;1.42;;
27728;SDS011;15126;42.186;24.340;2024-03-25T08:34:44;5.63;;;1.05;;
27728;SDS011;15126;42.186;24.340;2024-03-25T08:37:10;2.78;;;1.30;;
27728;SDS011;15126;42.186;24.340;2024-03-25T08:39:36;4.32;;;1.38;;
27728;SDS011;15126;42.186;24.340;2024-03-25T08:42:01;2.10;;;1.38;;
27728;SDS011;15126;42.186;24.340;2024-03-25T08:44:27;3.65;;;1.33;;
27728;SDS011;15126;42.186;24.340;2024-03-25T08:46:53;2.55;;;1.50;;
27728;SDS011;15126;42.186;24.340;2024-03-25T08:49:18;2.53;;;1.60;;
27728;SDS011;15126;42.186;24.340;2024-03-25T08:51:44;1.83;;;1.20;;
27728;SDS011;15126;42.186;24.340;2024-03-25T08:54:10;2.15;;;1.15;;
27728;SDS011;15126;42.186;24.340;2024-03-25T08:56:36;14.80;;;5.10;;
27728;SDS011;15126;42.186;24.340;2024-03-25T08:59:01;4.82;;;2.00;;
27728;SDS011;15126;42.186;24.340;2024-03-25T09:01:26;4.25;;;1.58;;
27728;SDS011;15126;42.186;24.340;2024-03-25T09:03:52;12.18;;;4.93;;
27728;SDS011;15126;42.186;24.340;2024-03-25T09:06:18;13.45;;;6.32;;
27728;SDS011;15126;42.186;24.340;2024-03-25T09:08:43;8.70;;;3.58;;
27728;SDS011;15126;42.186;24.340;2024-03-25T09:11:36;4.57;;;2.42;;
27728;SDS011;15126;42.186;24.340;2024-03-25T09:14:01;5.47;;;2.28;;
27728;SDS011;15126;42.186;24.340;2024-03-25T09:16:29;20.55;;;7.85;;
27728;SDS011;15126;42.186;24.340;2024-03-25T09:18:58;4.28;;;2.40;;
27728;SDS011;15126;42.186;24.340;2024-03-25T09:21:23;7.57;;;3.38;;
27728;SDS011;15126;42.186;24.340;2024-03-25T09:23:49;2.85;;;1.55;;
27728;SDS011;15126;42.186;24.340;2024-03-25T09:26:15;6.47;;;3.17;;
27728;SDS011;15126;42.186;24.340;2024-03-25T09:28:41;4.40;;;2.03;;
27728;SDS011;15126;42.186;24.340;2024-03-25T09:31:06;12.93;;;5.75;;
27728;SDS011;15126;42.186;24.340;2024-03-25T09:33:32;10.15;;;4.20;;
27728;SDS011;15126;42.186;24.340;2024-03-25T09:35:58;6.03;;;2.75;;
27728;SDS011;15126;42.186;24.340;2024-03-25T09:38:23;3.58;;;1.77;;
27728;SDS011;15126;42.186;24.340;2024-03-25T09:40:50;6.57;;;3.15;;
27728;SDS011;15126;42.186;24.340;2024-03-25T09:43:31;6.75;;;2.50;;
27728;SDS011;15126;42.186;24.340;2024-03-25T09:46:00;5.80;;;2.42;;
27728;SDS011;15126;42.186;24.340;2024-03-25T09:48:26;3.90;;;2.05;;
27728;SDS011;15126;42.186;24.340;2024-03-25T09:50:55;3.28;;;1.08;;
27728;SDS011;15126;42.186;24.340;2024-03-25T09:53:23;10.43;;;4.55;;
27728;SDS011;15126;42.186;24.340;2024-03-25T09:55:49;13.45;;;4.10;;
27728;SDS011;15126;42.186;24.340;2024-03-25T09:58:15;9.02;;;4.43;;
27728;SDS011;15126;42.186;24.340;2024-03-25T10:00:44;6.07;;;2.80;;
27728;SDS011;15126;42.186;24.340;2024-03-25T10:03:11;6.20;;;2.58;;
27728;SDS011;15126;42.186;24.340;2024-03-25T10:05:39;5.65;;;2.47;;
27728;SDS011;15126;42.186;24.340;2024-03-25T10:08:05;3.65;;;1.73;;
27728;SDS011;15126;42.186;24.340;2024-03-25T10:10:33;6.38;;;2.00;;
27728;SDS011;15126;42.186;24.340;2024-03-25T10:12:59;6.32;;;3.42;;
27728;SDS011;15126;42.186;24.340;2024-03-25T10:15:26;3.88;;;1.83;;
27728;SDS011;15126;42.186;24.340;2024-03-25T10:17:54;3.30;;;1.50;;
27728;SDS011;15126;42.186;24.340;2024-03-25T10:20:20;6.32;;;2.40;;
27728;SDS011;15126;42.186;24.340;2024-03-25T10:22:45;4.35;;;1.52;;
27728;SDS011;15126;42.186;24.340;2024-03-25T10:25:23;4.07;;;1.52;;
27728;SDS011;15126;42.186;24.340;2024-03-25T10:27:57;3.28;;;2.00;;
27728;SDS011;15126;42.186;24.340;2024-03-25T10:30:24;2.00;;;1.15;;
27728;SDS011;15126;42.186;24.340;2024-03-25T10:32:59;3.47;;;0.93;;
27728;SDS011;15126;42.186;24.340;2024-03-25T10:35:35;2.17;;;1.10;;
27728;SDS011;15126;42.186;24.340;2024-03-25T10:38:04;5.75;;;2.40;;
27728;SDS011;15126;42.186;24.340;2024-03-25T10:40:32;4.32;;;2.17;;
27728;SDS011;15126;42.186;24.340;2024-03-25T10:43:02;2.38;;;1.30;;
27728;SDS011;15126;42.186;24.340;2024-03-25T10:45:31;3.03;;;1.40;;
27728;SDS011;15126;42.186;24.340;2024-03-25T10:47:59;4.80;;;1.88;;
27728;SDS011;15126;42.186;24.340;2024-03-25T10:50:29;4.57;;;2.05;;
27728;SDS011;15126;42.186;24.340;2024-03-25T10:52:56;9.93;;;3.85;;
27728;SDS011;15126;42.186;24.340;2024-03-25T10:55:24;3.67;;;1.63;;
27728;SDS011;15126;42.186;24.340;2024-03-25T10:57:51;8.80;;;3.53;;
27728;SDS011;15126;42.186;24.340;2024-03-25T11:00:19;2.13;;;1.38;;
27728;SDS011;15126;42.186;24.340;2024-03-25T11:02:50;4.18;;;1.88;;
27728;SDS011;15126;42.186;24.340;2024-03-25T11:05:18;4.47;;;1.50;;
27728;SDS011;15126;42.186;24.340;2024-03-25T11:07:44;7.05;;;3.13;;
27728;SDS011;15126;42.186;24.340;2024-03-25T11:10:11;3.38;;;1.40;;
27728;SDS011;15126;42.186;24.340;2024-03-25T11:12:37;4.90;;;1.65;;
27728;SDS011;15126;42.186;24.340;2024-03-25T11:15:08;6.10;;;1.95;;
27728;SDS011;15126;42.186;24.340;2024-03-25T11:17:35;1.55;;;1.10;;
27728;SDS011;15126;42.186;24.340;2024-03-25T11:20:11;3.95;;;1.90;;
27728;SDS011;15126;42.186;24.340;2024-03-25T11:22:50;3.13;;;1.70;;
27728;SDS011;15126;42.186;24.340;2024-03-25T11:25:17;2.42;;;1.40;;
27728;SDS011;15126;42.186;24.340;2024-03-25T11:27:44;2.35;;;1.27;;
27728;SDS011;15126;42.186;24.340;2024-03-25T11:30:12;3.42;;;1.70;;
27728;SDS011;15126;42.186;24.340;2024-03-25T11:32:45;2.38;;;1.63;;
27728;SDS011;15126;42.186;24.340;2024-03-25T11:35:16;3.38;;;1.83;;
27728;SDS011;15126;42.186;24.340;2024-03-25T11:37:42;3.05;;;1.33;;
27728;SDS011;15126;42.186;24.340;2024-03-25T11:40:08;3.10;;;1.33;;
27728;SDS011;15126;42.186;24.340;2024-03-25T11:42:41;1.70;;;1.10;;
27728;SDS011;15126;42.186;24.340;2024-03-25T11:45:13;3.03;;;1.80;;
27728;SDS011;15126;42.186;24.340;2024-03-25T11:47:43;2.17;;;1.50;;
27728;SDS011;15126;42.186;24.340;2024-03-25T11:50:10;3.00;;;1.33;;
27728;SDS011;15126;42.186;24.340;2024-03-25T11:52:37;2.55;;;1.15;;
27728;SDS011;15126;42.186;24.340;2024-03-25T11:55:03;2.33;;;1.40;;
27728;SDS011;15126;42.186;24.340;2024-03-25T11:57:29;2.83;;;1.70;;
27728;SDS011;15126;42.186;24.340;2024-03-25T11:59:55;6.45;;;2.20;;
27728;SDS011;15126;42.186;24.340;2024-03-25T12:02:20;3.05;;;1.45;;
27728;SDS011;15126;42.186;24.340;2024-03-25T12:04:47;2.25;;;1.40;;
27728;SDS011;15126;42.186;24.340;2024-03-25T12:07:13;3.20;;;1.58;;
27728;SDS011;15126;42.186;24.340;2024-03-25T12:09:39;2.58;;;1.50;;
27728;SDS011;15126;42.186;24.340;2024-03-25T12:12:23;3.42;;;1.58;;
27728;SDS011;15126;42.186;24.340;2024-03-25T12:14:49;3.15;;;1.35;;
27728;SDS011;15126;42.186;24.340;2024-03-25T12:17:18;2.13;;;1.40;;
27728;SDS011;15126;42.186;24.340;2024-03-25T12:19:57;4.38;;;1.60;;
27728;SDS011;15126;42.186;24.340;2024-03-25T12:22:24;5.03;;;2.20;;
27728;SDS011;15126;42.186;24.340;2024-03-25T12:24:53;3.47;;;1.60;;
27728;SDS011;15126;42.186;24.340;2024-03-25T12:27:36;1.55;;;0.90;;
27728;SDS011;15126;42.186;24.340;2024-03-25T12:30:18;3.78;;;1.45;;
27728;SDS011;15126;42.186;24.340;2024-03-25T12:32:44;2.22;;;1.10;;
27728;SDS011;15126;42.186;24.340;2024-03-25T12:35:11;5.25;;;1.55;;
27728;SDS011;15126;42.186;24.340;2024-03-25T12:37:40;2.08;;;1.30;;
27728;SDS011;15126;42.186;24.340;2024-03-25T12:40:09;4.35;;;1.58;;
27728;SDS011;15126;42.186;24.340;2024-03-25T12:42:51;4.95;;;1.30;;
27728;SDS011;15126;42.186;24.340;2024-03-25T12:45:17;4.78;;;1.33;;
27728;SDS011;15126;42.186;24.340;2024-03-25T12:47:43;5.15;;;1.23;;
27728;SDS011;15126;42.186;24.340;2024-03-25T12:50:09;8.13;;;1.15;;
27728;SDS011;15126;42.186;24.340;2024-03-25T12:52:34;6.28;;;1.02;;
27728;SDS011;15126;42.186;24.340;2024-03-25T12:55:01;2.63;;;1.25;;
27728;SDS011;15126;42.186;24.340;2024-03-25T12:57:30;12.07;;;1.30;;
27728;SDS011;15126;42.186;24.340;2024-03-25T12:59:55;1.92;;;1.27;;
27728;SDS011;15126;42.186;24.340;2024-03-25T13:02:24;2.33;;;1.25;;
27728;SDS011;15126;42.186;24.340;2024-03-25T13:04:49;1.75;;;0.70;;
27728;SDS011;15126;42.186;24.340;2024-03-25T13:09:43;4.93;;;1.63;;
27728;SDS011;15126;42.186;24.340;2024-03-25T13:14:34;2.85;;;1.10;;
27728;SDS011;15126;42.186;24.340;2024-03-25T13:19:24;1.70;;;0.80;;
27728;SDS011;15126;42.186;24.340;2024-03-25T13:21:53;2.28;;;1.05;;
27728;SDS011;15126;42.186;24.340;2024-03-25T13:24:20;4.32;;;1.90;;
27728;SDS011;15126;42.186;24.340;2024-03-25T13:26:45;2.83;;;1.40;;
27728;SDS011;15126;42.186;24.340;2024-03-25T13:29:11;2.08;;;0.80;;
27728;SDS011;15126;42.186;24.340;2024-03-25T13:34:02;3.85;;;0.70;;
27728;SDS011;15126;42.186;24.340;2024-03-25T13:36:27;0.90;;;0.60;;
27728;SDS011;15126;42.186;24.340;2024-03-25T13:41:18;1.17;;;0.80;;
27728;SDS011;15126;42.186;24.340;2024-03-25T13:43:47;1.35;;;0.95;;
27728;SDS011;15126;42.186;24.340;2024-03-25T13:46:13;2.25;;;1.02;;
27728;SDS011;15126;42.186;24.340;2024-03-25T13:51:06;3.22;;;1.25;;
27728;SDS011;15126;42.186;24.340;2024-03-25T13:53:31;2.90;;;1.33;;
27728;SDS011;15126;42.186;24.340;2024-03-25T13:58:23;5.05;;;2.60;;
27728;SDS011;15126;42.186;24.340;2024-03-25T14:00:48;3.08;;;2.00;;
27728;SDS011;15126;42.186;24.340;2024-03-25T14:03:15;6.60;;;3.05;;
27728;SDS011;15126;42.186;24.340;2024-03-25T14:05:41;6.97;;;2.85;;
27728;SDS011;15126;42.186;24.340;2024-03-25T14:10:31;2.53;;;1.77;;
27728;SDS011;15126;42.186;24.340;2024-03-25T14:15:22;1.33;;;1.00;;
27728;SDS011;15126;42.186;24.340;2024-03-25T14:17:48;8.00;;;1.50;;
27728;SDS011;15126;42.186;24.340;2024-03-25T14:22:39;3.08;;;0.95;;
27728;SDS011;15126;42.186;24.340;2024-03-25T14:25:04;1.88;;;1.17;;
27728;SDS011;15126;42.186;24.340;2024-03-25T14:27:30;2.72;;;1.40;;
27728;SDS011;15126;42.186;24.340;2024-03-25T14:32:21;3.10;;;1.05;;
27728;SDS011;15126;42.186;24.340;2024-03-25T14:34:47;3.13;;;1.73;;
27728;SDS011;15126;42.186;24.340;2024-03-25T14:37:13;2.22;;;1.55;;
27728;SDS011;15126;42.186;24.340;2024-03-25T14:39:39;1.92;;;1.40;;
27728;SDS011;15126;42.186;24.340;2024-03-25T14:42:05;2.33;;;1.63;;
27728;SDS011;15126;42.186;24.340;2024-03-25T14:44:32;3.13;;;1.50;;
27728;SDS011;15126;42.186;24.340;2024-03-25T14:47:00;2.85;;;1.50;;
27728;SDS011;15126;42.186;24.340;2024-03-25T14:49:25;8.15;;;4.32;;
27728;SDS011;15126;42.186;24.340;2024-03-25T14:51:51;3.92;;;2.10;;
27728;SDS011;15126;42.186;24.340;2024-03-25T14:54:17;4.82;;;1.90;;
27728;SDS011;15126;42.186;24.340;2024-03-25T14:56:43;2.10;;;1.50;;
27728;SDS011;15126;42.186;24.340;2024-03-25T14:59:09;2.55;;;2.00;;
27728;SDS011;15126;42.186;24.340;2024-03-25T15:01:37;2.40;;;1.77;;
27728;SDS011;15126;42.186;24.340;2024-03-25T15:04:05;5.53;;;1.73;;
27728;SDS011;15126;42.186;24.340;2024-03-25T15:06:32;3.30;;;1.77;;
27728;SDS011;15126;42.186;24.340;2024-03-25T15:08:59;3.13;;;1.40;;
27728;SDS011;15126;42.186;24.340;2024-03-25T15:11:26;1.55;;;0.82;;
27728;SDS011;15126;42.186;24.340;2024-03-25T15:13:52;1.52;;;0.75;;
27728;SDS011;15126;42.186;24.340;2024-03-25T15:16:20;1.20;;;0.82;;
27728;SDS011;15126;42.186;24.340;2024-03-25T15:18:48;1.90;;;0.90;;
27728;SDS011;15126;42.186;24.340;2024-03-25T15:21:16;2.15;;;1.15;;
27728;SDS011;15126;42.186;24.340;2024-03-25T15:23:41;2.38;;;0.80;;
27728;SDS011;15126;42.186;24.340;2024-03-25T15:26:07;1.48;;;0.80;;
27728;SDS011;15126;42.186;24.340;2024-03-25T15:28:32;4.38;;;1.58;;
27728;SDS011;15126;42.186;24.340;2024-03-25T15:30:58;2.05;;;1.10;;
27728;SDS011;15126;42.186;24.340;2024-03-25T15:33:24;3.95;;;1.50;;
27728;SDS011;15126;42.186;24.340;2024-03-25T15:35:50;2.03;;;1.33;;
27728;SDS011;15126;42.186;24.340;2024-03-25T15:38:21;4.00;;;1.80;;
27728;SDS011;15126;42.186;24.340;2024-03-25T15:40:49;2.90;;;1.30;;
27728;SDS011;15126;42.186;24.340;2024-03-25T15:43:20;4.72;;;1.58;;
27728;SDS011;15126;42.186;24.340;2024-03-25T15:45:57;2.60;;;1.52;;
27728;SDS011;15126;42.186;24.340;2024-03-25T15:48:24;3.92;;;1.35;;
27728;SDS011;15126;42.186;24.340;2024-03-25T15:50:49;2.50;;;1.50;;
27728;SDS011;15126;42.186;24.340;2024-03-25T15:55:41;4.15;;;1.73;;
27728;SDS011;15126;42.186;24.340;2024-03-25T15:58:07;5.75;;;3.10;;
27728;SDS011;15126;42.186;24.340;2024-03-25T16:00:36;3.22;;;2.10;;
27728;SDS011;15126;42.186;24.340;2024-03-25T16:03:03;2.53;;;2.10;;
27728;SDS011;15126;42.186;24.340;2024-03-25T16:05:29;4.10;;;2.00;;
27728;SDS011;15126;42.186;24.340;2024-03-25T16:07:55;4.05;;;2.22;;
27728;SDS011;15126;42.186;24.340;2024-03-25T16:10:24;3.47;;;1.67;;
27728;SDS011;15126;42.186;24.340;2024-03-25T16:13:02;5.65;;;2.28;;
27728;SDS011;15126;42.186;24.340;2024-03-25T16:15:28;3.55;;;1.70;;
27728;SDS011;15126;42.186;24.340;2024-03-25T16:17:54;3.75;;;1.67;;
27728;SDS011;15126;42.186;24.340;2024-03-25T16:20:20;2.95;;;1.92;;
27728;SDS011;15126;42.186;24.340;2024-03-25T16:22:49;4.75;;;2.03;;
27728;SDS011;15126;42.186;24.340;2024-03-25T16:25:18;4.32;;;2.50;;
27728;SDS011;15126;42.186;24.340;2024-03-25T16:27:46;5.43;;;1.88;;